Time;durP1;ratioP1;P1;durP2;ratioP2;P2;SDS_P1;SDS_P2;PMS_P1;PMS_P2;Temp;Humidity;BMP_temperature;BMP_pressure;BME280_temperature;BME280_humidity;BME280_pressure;Samples;Min_cycle;Max_cycle;Signal;HPM_P1;HPM_P2
2021/08/04 00:01:46;;;;;;;1.50;1.00;;;17.70;99.90;;;;;;6246360;28;20219;-70
2021/08/04 00:04:48;;;;;;;3.80;1.03;;;17.70;99.90;;;;;;6246679;28;20188;-70
2021/08/04 00:07:51;;;;;;;1.67;1.13;;;17.70;99.90;;;;;;6262502;28;20246;-71
2021/08/04 00:10:53;;;;;;;1.70;1.10;;;17.80;99.90;;;;;;6247394;28;20184;-71
2021/08/04 00:13:55;;;;;;;1.33;1.10;;;17.80;99.90;;;;;;6247497;28;20211;-70
2021/08/04 00:16:58;;;;;;;1.20;0.87;;;17.80;99.90;;;;;;6247278;28;20656;-70
2021/08/04 00:20:01;;;;;;;1.33;1.23;;;17.80;99.90;;;;;;6246546;28;20251;-70
2021/08/04 00:23:03;;;;;;;1.00;0.90;;;17.80;99.90;;;;;;6247061;28;20222;-71
2021/08/04 00:26:05;;;;;;;1.17;0.93;;;17.70;99.90;;;;;;6245826;28;20191;-70
2021/08/04 00:29:08;;;;;;;1.00;1.00;;;17.70;99.90;;;;;;6247016;28;20334;-70
2021/08/04 00:32:11;;;;;;;0.90;0.90;;;17.60;99.90;;;;;;6262101;28;20204;-70
2021/08/04 00:35:13;;;;;;;1.23;1.10;;;17.60;99.90;;;;;;6246773;28;20223;-70
2021/08/04 00:38:15;;;;;;;0.80;0.80;;;17.60;99.90;;;;;;6246530;28;20552;-70
2021/08/04 00:41:18;;;;;;;0.87;0.83;;;17.60;99.90;;;;;;6245590;28;20192;-71
2021/08/04 00:44:20;;;;;;;0.90;0.87;;;17.60;99.90;;;;;;6245430;28;20196;-70
2021/08/04 00:47:23;;;;;;;1.00;0.90;;;17.60;99.90;;;;;;6262294;28;20207;-70
2021/08/04 00:50:26;;;;;;;1.57;1.10;;;17.50;99.90;;;;;;6245092;28;20287;-70
2021/08/04 00:53:29;;;;;;;1.30;1.00;;;17.50;99.90;;;;;;6244978;28;20306;-70
2021/08/04 00:56:35;;;;;;;0.93;0.80;;;17.40;99.90;;;;;;6245118;28;20188;-70
2021/08/04 00:59:38;;;;;;;1.07;0.90;;;17.40;99.90;;;;;;6236972;28;20606;-70
2021/08/04 01:02:43;;;;;;;1.03;0.80;;;17.40;99.90;;;;;;6243193;28;20200;-70
2021/08/04 01:05:54;;;;;;;2.63;0.80;;;17.40;99.90;;;;;;6245083;28;20196;-70
2021/08/04 01:08:57;;;;;;;1.40;0.90;;;17.50;99.90;;;;;;6246071;28;20192;-70
2021/08/04 01:12:04;;;;;;;0.77;0.77;;;17.50;99.90;;;;;;6244778;28;20203;-71
2021/08/04 01:15:07;;;;;;;0.80;0.80;;;17.50;99.90;;;;;;6245791;28;20314;-70
2021/08/04 01:18:15;;;;;;;0.70;0.70;;;17.60;99.90;;;;;;6244487;28;20188;-69
2021/08/04 01:21:41;;;;;;;0.90;0.80;;;17.60;99.90;;;;;;6244676;28;20192;-70
2021/08/04 01:25:10;;;;;;;0.80;0.80;;;17.60;99.90;;;;;;6234167;28;20670;-70
2021/08/04 01:28:28;;;;;;;1.40;1.30;;;17.60;99.90;;;;;;6245670;28;20805;-70
2021/08/04 01:31:33;;;;;;;0.80;0.80;;;17.60;99.90;;;;;;6243590;28;20301;-70
2021/08/04 01:34:36;;;;;;;0.80;0.80;;;17.60;99.90;;;;;;6260786;28;20223;-70
2021/08/04 01:37:41;;;;;;;1.67;1.00;;;17.60;99.90;;;;;;6260681;28;20203;-70
2021/08/04 01:40:48;;;;;;;1.07;0.90;;;17.60;99.90;;;;;;6260964;28;20254;-70
2021/08/04 01:43:51;;;;;;;1.00;0.90;;;17.60;99.90;;;;;;6260904;28;20211;-70
2021/08/04 01:46:55;;;;;;;1.10;1.00;;;17.70;99.90;;;;;;6260760;28;20204;-71
2021/08/04 01:49:59;;;;;;;1.50;0.87;;;17.70;99.90;;;;;;6244003;28;20606;-70
2021/08/04 01:53:02;;;;;;;0.87;0.80;;;17.70;99.90;;;;;;6244267;28;20231;-70
2021/08/04 01:56:06;;;;;;;1.17;0.80;;;17.70;99.90;;;;;;6260685;28;20195;-71
2021/08/04 01:59:09;;;;;;;0.77;0.70;;;17.70;99.90;;;;;;6260583;28;20341;-70
2021/08/04 02:02:22;;;;;;;1.37;0.83;;;17.70;99.90;;;;;;6243989;28;20202;-70
2021/08/04 02:05:25;;;;;;;1.17;1.07;;;17.70;99.90;;;;;;6245333;28;20195;-70
2021/08/04 02:08:46;;;;;;;0.80;0.80;;;17.70;99.90;;;;;;6245195;28;20253;-70
2021/08/04 02:12:04;;;;;;;2.10;1.00;;;17.80;99.90;;;;;;6243986;28;20207;-70
2021/08/04 02:15:12;;;;;;;2.57;0.80;;;17.80;99.90;;;;;;6243657;28;20231;-70
2021/08/04 02:18:20;;;;;;;1.50;0.73;;;17.70;99.90;;;;;;6240507;28;20640;-70
2021/08/04 02:21:24;;;;;;;1.00;0.90;;;17.70;99.90;;;;;;6244069;28;20196;-70
2021/08/04 02:24:31;;;;;;;1.07;0.90;;;17.70;99.90;;;;;;6260467;28;20735;-70
2021/08/04 02:27:38;;;;;;;0.83;0.80;;;17.70;99.90;;;;;;6243694;28;20213;-71
2021/08/04 02:30:41;;;;;;;1.00;0.93;;;17.60;99.90;;;;;;6260400;28;20197;-70
2021/08/04 02:33:45;;;;;;;1.13;0.90;;;17.60;99.90;;;;;;6243588;28;20208;-70
2021/08/04 02:36:48;;;;;;;1.00;0.90;;;17.50;99.90;;;;;;6260138;28;20554;-70
2021/08/04 02:39:51;;;;;;;0.80;0.70;;;17.40;99.90;;;;;;6243636;28;20551;-71
2021/08/04 02:42:55;;;;;;;1.30;1.00;;;17.40;99.90;;;;;;6262125;28;20235;-71
2021/08/04 02:45:59;;;;;;;0.80;0.80;;;17.30;99.90;;;;;;6264739;28;20200;-70
2021/08/04 02:49:01;;;;;;;0.87;0.87;;;17.20;99.90;;;;;;6264527;28;20196;-71
2021/08/04 02:52:05;;;;;;;2.83;1.00;;;17.10;99.90;;;;;;6247993;28;20196;-70
2021/08/04 02:55:08;;;;;;;0.80;0.80;;;17.00;99.90;;;;;;6264489;28;20211;-70
2021/08/04 02:58:12;;;;;;;1.83;0.80;;;16.90;99.90;;;;;;6249057;28;20554;-70
2021/08/04 03:01:15;;;;;;;3.13;1.03;;;16.90;99.90;;;;;;6249245;28;20338;-71
2021/08/04 03:04:17;;;;;;;0.87;0.83;;;16.70;99.90;;;;;;6264342;28;20207;-70
2021/08/04 03:07:20;;;;;;;1.43;0.90;;;16.60;99.90;;;;;;6248018;28;20710;-70
2021/08/04 03:10:23;;;;;;;1.03;0.90;;;16.50;99.90;;;;;;6264436;28;20214;-70
2021/08/04 03:13:26;;;;;;;1.40;1.10;;;16.40;99.90;;;;;;6247632;28;20593;-70
2021/08/04 03:16:29;;;;;;;3.00;1.10;;;16.40;99.90;;;;;;6247332;28;20610;-69
2021/08/04 03:19:31;;;;;;;1.77;1.07;;;16.30;99.90;;;;;;6231014;28;20282;-70
2021/08/04 03:22:33;;;;;;;1.00;0.90;;;16.20;99.90;;;;;;6248266;28;20191;-70
2021/08/04 03:25:36;;;;;;;0.73;0.73;;;16.10;99.90;;;;;;6248516;28;20191;-71
2021/08/04 03:28:38;;;;;;;2.40;1.03;;;16.10;99.90;;;;;;6248495;28;20184;-69
2021/08/04 03:31:40;;;;;;;0.83;0.83;;;16.10;99.90;;;;;;6247089;28;20717;-70
2021/08/04 03:34:43;;;;;;;0.90;0.80;;;16.10;99.90;;;;;;6222641;28;20739;-69
2021/08/04 03:37:46;;;;;;;1.10;1.00;;;16.10;99.90;;;;;;6243754;28;20566;-69
2021/08/04 03:40:48;;;;;;;0.97;0.97;;;16.10;99.90;;;;;;6246894;28;20287;-70
2021/08/04 03:43:50;;;;;;;1.30;0.90;;;16.10;99.90;;;;;;6248131;28;20210;-70
2021/08/04 03:46:52;;;;;;;0.83;0.80;;;16.20;99.90;;;;;;6247083;28;20544;-70
2021/08/04 03:49:55;;;;;;;1.83;0.70;;;16.20;99.90;;;;;;6246677;28;20202;-70
2021/08/04 03:52:57;;;;;;;1.30;0.80;;;16.30;99.90;;;;;;6247718;28;20279;-70
2021/08/04 03:56:00;;;;;;;1.77;0.90;;;16.40;99.90;;;;;;6245909;28;20196;-71
2021/08/04 03:59:02;;;;;;;0.77;0.70;;;16.40;99.90;;;;;;6262767;28;20208;-71
2021/08/04 04:02:04;;;;;;;0.50;0.50;;;16.40;99.90;;;;;;6247323;28;20686;-70
2021/08/04 04:05:08;;;;;;;1.07;0.97;;;16.50;99.90;;;;;;6247174;28;20195;-70
2021/08/04 04:08:11;;;;;;;0.70;0.70;;;16.60;99.90;;;;;;6262362;28;20196;-71
2021/08/04 04:11:13;;;;;;;0.70;0.70;;;16.60;99.90;;;;;;6247135;28;20260;-70
2021/08/04 04:14:16;;;;;;;0.80;0.70;;;16.70;99.90;;;;;;6246938;28;20237;-71
2021/08/04 04:17:18;;;;;;;1.60;0.77;;;16.80;99.90;;;;;;6247201;28;20665;-71
2021/08/04 04:20:20;;;;;;;0.87;0.87;;;16.80;99.90;;;;;;6227677;28;20194;-71
2021/08/04 04:23:23;;;;;;;1.67;1.10;;;17.00;99.90;;;;;;6248866;28;20188;-71
2021/08/04 04:26:25;;;;;;;3.10;1.00;;;17.00;99.90;;;;;;6246570;28;20199;-71
2021/08/04 04:29:28;;;;;;;0.97;0.63;;;17.10;99.90;;;;;;6263161;28;20651;-72
2021/08/04 04:32:30;;;;;;;1.83;0.70;;;17.10;99.90;;;;;;6262219;28;20726;-71
2021/08/04 04:35:32;;;;;;;0.93;0.70;;;17.20;99.90;;;;;;6246388;28;20300;-71
2021/08/04 04:38:35;;;;;;;0.90;0.90;;;17.30;99.90;;;;;;6246308;28;20192;-72
2021/08/04 04:41:38;;;;;;;1.20;0.80;;;17.30;99.90;;;;;;6246537;28;20184;-71
2021/08/04 04:44:40;;;;;;;1.23;0.70;;;17.30;99.90;;;;;;6246089;28;20207;-72
2021/08/04 04:47:42;;;;;;;1.37;0.80;;;17.40;99.90;;;;;;6246333;28;20188;-71
2021/08/04 04:50:44;;;;;;;0.80;0.80;;;17.50;99.90;;;;;;6245096;28;20192;-72
2021/08/04 04:53:47;;;;;;;0.70;0.67;;;17.60;99.90;;;;;;6246213;28;20218;-72
2021/08/04 04:56:49;;;;;;;1.10;0.80;;;17.60;99.90;;;;;;6246056;28;20879;-71
2021/08/04 04:59:51;;;;;;;1.23;1.13;;;17.70;99.90;;;;;;6244408;28;20188;-72
2021/08/04 05:02:53;;;;;;;1.10;0.80;;;17.80;99.90;;;;;;6261378;28;20656;-71
2021/08/04 05:05:57;;;;;;;1.00;0.80;;;17.90;99.90;;;;;;6245884;28;20196;-71
2021/08/04 05:08:59;;;;;;;0.77;0.77;;;18.00;99.90;;;;;;6245779;28;20188;-71
2021/08/04 05:12:01;;;;;;;0.83;0.83;;;18.00;99.90;;;;;;6245513;28;20219;-71
2021/08/04 05:15:05;;;;;;;1.87;0.70;;;18.10;99.90;;;;;;6245357;28;20665;-71
2021/08/04 05:18:08;;;;;;;1.77;1.00;;;18.10;99.90;;;;;;6245507;28;20185;-71
2021/08/04 05:21:10;;;;;;;1.13;0.93;;;18.20;99.90;;;;;;6245432;28;20574;-71
2021/08/04 05:24:12;;;;;;;1.00;1.00;;;18.40;99.90;;;;;;6244192;28;20535;-72
2021/08/04 05:27:15;;;;;;;1.90;0.80;;;18.50;99.90;;;;;;6245437;28;20200;-71
2021/08/04 05:30:17;;;;;;;1.03;0.93;;;18.60;99.90;;;;;;6245313;28;20278;-71
2021/08/04 05:33:20;;;;;;;1.33;1.20;;;18.70;99.90;;;;;;6244171;28;20302;-71
2021/08/04 05:36:22;;;;;;;1.00;0.90;;;18.80;99.90;;;;;;6244014;28;20689;-71
2021/08/04 05:39:24;;;;;;;1.97;0.90;;;18.90;99.90;;;;;;6245131;28;20659;-72
2021/08/04 05:42:26;;;;;;;2.20;1.10;;;18.90;99.90;;;;;;6245151;28;20667;-72
2021/08/04 05:45:30;;;;;;;1.57;1.10;;;19.00;99.90;;;;;;6244111;28;20333;-71
2021/08/04 05:48:33;;;;;;;3.47;1.40;;;19.00;99.90;;;;;;6243645;28;20202;-71
2021/08/04 05:51:36;;;;;;;2.47;0.80;;;19.00;99.90;;;;;;6243852;28;20203;-72
2021/08/04 05:54:39;;;;;;;0.87;0.87;;;19.00;99.90;;;;;;6243697;28;20766;-72
2021/08/04 05:57:41;;;;;;;1.17;0.90;;;19.10;99.90;;;;;;6243691;28;20274;-71
2021/08/04 06:00:43;;;;;;;2.30;0.87;;;19.00;99.90;;;;;;6243618;28;20643;-71
2021/08/04 06:03:46;;;;;;;0.87;0.80;;;19.00;99.90;;;;;;6245244;28;20568;-72
2021/08/04 06:06:48;;;;;;;1.00;0.80;;;18.90;99.90;;;;;;6243887;28;20562;-71
2021/08/04 06:09:51;;;;;;;0.83;0.80;;;18.80;99.90;;;;;;6244926;28;20656;-71
2021/08/04 06:12:57;;;;;;;0.80;0.80;;;18.80;99.90;;;;;;6243561;28;20204;-70
2021/08/04 06:16:18;;;;;;;0.77;0.77;;;18.80;99.90;;;;;;6244792;28;20235;-71
2021/08/04 06:19:21;;;;;;;1.03;0.77;;;18.70;99.90;;;;;;6231888;28;20203;-71
2021/08/04 06:22:23;;;;;;;1.43;0.70;;;18.70;99.90;;;;;;6248313;28;20194;-70
2021/08/04 06:25:25;;;;;;;0.60;0.60;;;18.80;99.90;;;;;;6249782;28;20265;-72
2021/08/04 06:28:28;;;;;;;0.63;0.63;;;18.90;99.90;;;;;;6249698;28;20675;-72
2021/08/04 06:31:30;;;;;;;0.77;0.77;;;18.90;99.90;;;;;;6249790;28;20192;-71
2021/08/04 06:34:32;;;;;;;1.47;0.57;;;18.90;99.90;;;;;;6248026;28;20238;-71
2021/08/04 06:37:36;;;;;;;1.13;0.70;;;18.90;99.90;;;;;;6249396;28;20686;-70
2021/08/04 06:40:38;;;;;;;1.33;0.90;;;19.00;99.90;;;;;;6249424;28;20679;-71
2021/08/04 06:43:40;;;;;;;1.03;0.77;;;19.00;99.90;;;;;;6247921;28;20630;-72
2021/08/04 06:46:43;;;;;;;2.17;0.87;;;19.10;99.90;;;;;;6249273;28;20196;-72
2021/08/04 06:49:45;;;;;;;0.90;0.80;;;19.00;99.80;;;;;;6247582;28;20199;-72
2021/08/04 06:52:47;;;;;;;0.80;0.80;;;19.00;99.90;;;;;;6249078;28;20188;-71
2021/08/04 06:55:49;;;;;;;1.00;0.90;;;19.00;99.90;;;;;;6248579;28;20202;-71
2021/08/04 06:58:52;;;;;;;0.83;0.80;;;19.10;99.90;;;;;;6248969;28;20180;-71
2021/08/04 07:01:54;;;;;;;0.80;0.77;;;19.10;99.90;;;;;;6247863;28;20238;-72
2021/08/04 07:04:57;;;;;;;1.60;1.00;;;19.20;99.90;;;;;;6248627;28;20283;-71
2021/08/04 07:07:59;;;;;;;0.93;0.60;;;19.30;99.90;;;;;;6247206;28;20663;-71
2021/08/04 07:11:06;;;;;;;1.10;1.00;;;19.30;99.90;;;;;;6239472;28;20204;-71
2021/08/04 07:14:08;;;;;;;1.00;0.80;;;19.30;99.90;;;;;;6237749;28;20244;-71
2021/08/04 07:17:10;;;;;;;2.00;0.70;;;19.10;99.80;;;;;;6249250;28;20196;-71
2021/08/04 07:20:18;;;;;;;0.73;0.73;;;19.10;99.90;;;;;;6247901;28;20195;-72
2021/08/04 07:23:21;;;;;;;0.90;0.80;;;19.10;99.90;;;;;;6247047;28;20193;-72
2021/08/04 07:26:23;;;;;;;0.80;0.80;;;19.20;99.90;;;;;;6248273;28;20271;-71
2021/08/04 07:29:25;;;;;;;0.90;0.90;;;19.20;99.90;;;;;;6246994;28;20204;-71
2021/08/04 07:32:28;;;;;;;0.83;0.83;;;19.10;99.90;;;;;;6263743;28;20257;-71
2021/08/04 07:35:30;;;;;;;0.90;0.90;;;19.20;99.90;;;;;;6247845;28;20240;-71
2021/08/04 07:38:33;;;;;;;1.83;1.00;;;19.20;99.90;;;;;;6262913;28;20202;-71
2021/08/04 07:41:35;;;;;;;0.93;0.90;;;19.20;99.90;;;;;;6246814;28;20206;-70
2021/08/04 07:44:38;;;;;;;0.80;0.80;;;19.30;99.90;;;;;;6263408;28;20204;-71
2021/08/04 07:47:40;;;;;;;1.00;0.90;;;19.40;99.90;;;;;;6247558;28;20187;-71
2021/08/04 07:50:42;;;;;;;0.87;0.87;;;19.40;99.90;;;;;;6246433;28;20196;-71
2021/08/04 07:53:45;;;;;;;0.80;0.80;;;19.30;99.90;;;;;;6246077;28;20250;-70
2021/08/04 07:56:47;;;;;;;0.83;0.83;;;19.30;99.90;;;;;;6246317;28;20184;-70
2021/08/04 07:59:49;;;;;;;0.70;0.70;;;19.40;99.90;;;;;;6245881;28;20203;-71
2021/08/04 08:02:51;;;;;;;0.70;0.70;;;19.40;99.90;;;;;;6247368;28;20187;-72
2021/08/04 08:05:55;;;;;;;1.30;0.83;;;19.40;99.90;;;;;;6247730;28;20236;-71
2021/08/04 08:08:57;;;;;;;1.07;0.80;;;19.30;99.90;;;;;;6247116;28;20195;-71
2021/08/04 08:12:00;;;;;;;1.10;0.90;;;19.40;99.90;;;;;;6245826;28;20279;-71
2021/08/04 08:15:03;;;;;;;0.90;0.90;;;19.40;99.90;;;;;;6246687;28;20236;-70
2021/08/04 08:18:12;;;;;;;1.20;0.80;;;19.50;99.90;;;;;;6246797;28;20782;-71
2021/08/04 08:21:14;;;;;;;2.20;0.90;;;19.60;99.90;;;;;;6245780;28;20230;-69
2021/08/04 08:24:17;;;;;;;1.93;1.03;;;19.90;99.90;;;;;;6245662;28;20206;-69
2021/08/04 08:27:19;;;;;;;1.10;1.00;;;20.10;99.90;;;;;;6245593;28;20204;-71
2021/08/04 08:30:22;;;;;;;0.87;0.83;;;20.30;99.50;;;;;;6261906;28;20192;-71
2021/08/04 08:33:25;;;;;;;1.40;1.10;;;20.50;99.20;;;;;;6245337;28;20273;-72
2021/08/04 08:36:28;;;;;;;1.40;1.10;;;20.60;99.10;;;;;;6261578;28;20683;-71
2021/08/04 08:39:32;;;;;;;1.00;0.90;;;20.60;98.50;;;;;;6245177;28;20192;-69
2021/08/04 08:42:34;;;;;;;1.07;0.97;;;20.60;98.70;;;;;;6261553;28;20285;-70
2021/08/04 08:45:36;;;;;;;1.47;1.20;;;20.60;98.50;;;;;;6244880;28;20192;-72
2021/08/04 08:48:39;;;;;;;1.57;1.00;;;20.60;98.80;;;;;;6247605;28;20224;-72
2021/08/04 08:51:41;;;;;;;1.67;1.03;;;20.80;98.70;;;;;;6247475;28;20321;-71
2021/08/04 08:54:44;;;;;;;1.00;1.00;;;20.90;97.50;;;;;;6245052;28;20600;-71
2021/08/04 08:57:47;;;;;;;2.00;1.10;;;21.00;97.50;;;;;;6261820;28;20230;-72
2021/08/04 09:00:50;;;;;;;3.07;1.67;;;21.20;97.60;;;;;;6245979;28;20242;-71
2021/08/04 09:03:53;;;;;;;0.93;0.93;;;21.50;96.90;;;;;;6245198;28;20271;-72
2021/08/04 09:07:00;;;;;;;1.47;1.37;;;21.50;97.10;;;;;;6245713;28;20202;-72
2021/08/04 09:10:20;;;;;;;1.80;1.23;;;21.70;96.60;;;;;;6247350;28;20192;-73
2021/08/04 09:13:41;;;;;;;1.63;0.93;;;21.90;96.20;;;;;;6244456;28;20203;-72
2021/08/04 09:16:44;;;;;;;1.07;0.97;;;22.20;96.50;;;;;;6246209;28;20630;-71
2021/08/04 09:19:53;;;;;;;2.00;1.03;;;22.50;95.20;;;;;;6247308;28;20203;-72
2021/08/04 09:23:00;;;;;;;1.73;1.20;;;22.60;94.90;;;;;;6222409;28;20177;-71
2021/08/04 09:26:12;;;;;;;1.63;1.00;;;22.60;94.00;;;;;;6243436;28;20231;-71
2021/08/04 09:29:14;;;;;;;1.80;1.17;;;22.80;94.60;;;;;;6245450;28;20729;-71
2021/08/04 09:32:26;;;;;;;1.70;1.10;;;22.90;94.30;;;;;;6244031;28;20196;-71
2021/08/04 09:35:28;;;;;;;1.20;1.10;;;23.00;93.70;;;;;;6245117;28;20224;-71
2021/08/04 09:38:31;;;;;;;1.90;1.40;;;23.10;93.30;;;;;;6245305;28;20203;-71
2021/08/04 09:41:33;;;;;;;1.23;1.13;;;23.40;93.60;;;;;;6244386;28;20631;-72
2021/08/04 09:44:50;;;;;;;1.10;1.00;;;23.70;93.00;;;;;;6246545;28;20203;-72
2021/08/04 09:48:08;;;;;;;1.30;1.10;;;23.70;91.50;;;;;;6244180;28;20664;-72
2021/08/04 09:51:16;;;;;;;1.43;1.10;;;23.40;91.00;;;;;;6243247;28;20196;-72
2021/08/04 09:54:18;;;;;;;1.03;1.00;;;23.30;92.20;;;;;;6260123;28;20713;-71
2021/08/04 09:57:39;;;;;;;1.57;1.27;;;23.40;92.70;;;;;;6244850;28;20199;-71
2021/08/04 10:00:49;;;;;;;2.50;1.27;;;23.60;92.10;;;;;;6245655;28;20212;-71
2021/08/04 10:04:01;;;;;;;1.10;1.00;;;23.50;91.10;;;;;;6244226;28;20566;-71
2021/08/04 10:07:09;;;;;;;1.93;1.13;;;23.60;91.30;;;;;;6260255;28;20196;-71
2021/08/04 10:10:11;;;;;;;1.47;1.30;;;23.80;90.80;;;;;;6244630;28;20241;-72
2021/08/04 10:13:18;;;;;;;2.23;1.30;;;24.10;89.80;;;;;;6244868;28;20539;-71
2021/08/04 10:16:21;;;;;;;1.10;0.93;;;24.20;88.00;;;;;;6243329;28;20239;-72
2021/08/04 10:19:25;;;;;;;1.07;0.93;;;24.60;87.70;;;;;;6243297;28;20277;-71
2021/08/04 10:22:28;;;;;;;1.53;1.33;;;24.80;85.60;;;;;;6259910;28;20215;-72
2021/08/04 10:25:32;;;;;;;1.50;1.30;;;25.10;84.70;;;;;;6244774;28;20185;-72
2021/08/04 10:28:35;;;;;;;1.10;1.00;;;25.30;82.80;;;;;;6244809;28;20550;-71
2021/08/04 10:31:40;;;;;;;1.23;1.10;;;25.30;80.70;;;;;;6243042;28;20211;-70
2021/08/04 10:34:56;;;;;;;0.90;0.90;;;25.30;80.50;;;;;;6244333;28;20620;-70
2021/08/04 10:37:59;;;;;;;1.33;1.23;;;25.40;79.70;;;;;;6243233;28;20282;-69
2021/08/04 10:41:12;;;;;;;0.80;0.80;;;25.40;79.10;;;;;;6244368;28;20338;-71
2021/08/04 10:44:22;;;;;;;1.35;1.00;;;25.30;79.80;;;;;;6243127;28;20204;-70
2021/08/04 10:47:26;;;;;;;1.30;1.20;;;25.10;77.50;;;;;;6243888;28;20688;-71
2021/08/04 10:50:29;;;;;;;2.28;1.25;;;25.00;77.40;;;;;;6259362;28;20358;-70
2021/08/04 10:53:31;;;;;;;1.08;0.90;;;24.90;76.30;;;;;;6243035;28;20180;-72
2021/08/04 10:56:39;;;;;;;1.17;1.08;;;24.90;78.70;;;;;;6242805;28;20224;-72
2021/08/04 10:59:42;;;;;;;1.20;1.10;;;25.00;79.40;;;;;;6259465;28;20196;-71
2021/08/04 11:02:44;;;;;;;1.10;1.00;;;25.00;80.50;;;;;;6244233;28;20725;-71
2021/08/04 11:06:03;;;;;;;1.38;1.10;;;25.20;77.70;;;;;;6247504;28;20188;-71
2021/08/04 11:09:12;;;;;;;1.88;1.33;;;25.50;73.70;;;;;;6247226;28;20199;-70
2021/08/04 11:12:20;;;;;;;2.20;1.15;;;25.60;76.20;;;;;;6247343;28;20270;-70
2021/08/04 11:15:29;;;;;;;1.45;1.35;;;25.50;72.80;;;;;;6246871;28;20245;-70
2021/08/04 11:18:59;;;;;;;1.10;1.00;;;25.40;73.40;;;;;;6248409;28;20674;-70
2021/08/04 11:22:17;;;;;;;1.80;1.00;;;25.60;73.90;;;;;;6247391;28;20568;-71
2021/08/04 11:25:41;;;;;;;1.20;1.10;;;25.70;71.10;;;;;;6248100;28;20195;-73
2021/08/04 11:28:45;;;;;;;1.02;0.95;;;25.40;71.70;;;;;;6248259;28;20215;-72
2021/08/04 11:32:19;;;;;;;1.88;1.30;;;25.40;76.00;;;;;;6246688;28;20322;-71
2021/08/04 11:35:22;;;;;;;0.80;0.80;;;25.70;72.90;;;;;;6263420;28;20687;-71
2021/08/04 11:38:40;;;;;;;1.00;1.00;;;25.80;73.20;;;;;;6248000;28;20220;-72
2021/08/04 11:41:45;;;;;;;1.38;1.23;;;25.80;73.30;;;;;;6247803;28;20196;-71
2021/08/04 11:44:48;;;;;;;1.40;1.30;;;25.80;74.70;;;;;;6246497;28;20188;-71
2021/08/04 11:47:50;;;;;;;1.13;1.02;;;25.70;74.90;;;;;;6247681;28;20199;-71
2021/08/04 11:50:53;;;;;;;1.38;1.15;;;25.60;76.60;;;;;;6247534;28;20203;-71
2021/08/04 11:53:56;;;;;;;1.23;1.10;;;25.60;77.50;;;;;;6247569;28;20192;-72
2021/08/04 11:56:59;;;;;;;1.65;1.30;;;25.70;77.80;;;;;;6247459;28;20552;-70
2021/08/04 12:00:24;;;;;;;1.67;1.30;;;25.80;75.50;;;;;;6245735;28;20187;-70
2021/08/04 12:03:26;;;;;;;1.20;1.10;;;25.60;74.90;;;;;;6247450;28;20192;-70
2021/08/04 12:06:29;;;;;;;1.13;1.05;;;25.40;75.60;;;;;;6247297;28;20192;-71
2021/08/04 12:09:34;;;;;;;3.05;1.30;;;25.20;77.70;;;;;;6245648;28;20199;-71
2021/08/04 12:12:47;;;;;;;2.33;1.17;;;25.30;79.30;;;;;;6262505;28;20361;-71
2021/08/04 12:15:58;;;;;;;2.15;1.20;;;25.40;81.40;;;;;;6264309;28;20235;-71
2021/08/04 12:19:01;;;;;;;1.15;1.08;;;25.50;77.60;;;;;;6249060;28;20278;-71
2021/08/04 12:22:09;;;;;;;2.17;1.02;;;25.40;77.90;;;;;;6264835;28;20199;-71
2021/08/04 12:25:16;;;;;;;1.85;1.05;;;25.30;77.20;;;;;;6248113;28;20246;-70
2021/08/04 12:28:19;;;;;;;1.75;1.40;;;25.20;78.10;;;;;;6248323;28;20196;-70
2021/08/04 12:31:21;;;;;;;1.30;1.20;;;25.30;79.40;;;;;;6247690;28;20571;-70
2021/08/04 12:34:23;;;;;;;2.15;1.25;;;25.30;75.50;;;;;;6249132;28;20219;-71
2021/08/04 12:37:28;;;;;;;2.45;1.13;;;25.40;73.10;;;;;;6246319;28;20223;-70
2021/08/04 12:40:31;;;;;;;2.20;2.00;;;25.40;73.30;;;;;;6247008;28;20264;-70
2021/08/04 12:43:37;;;;;;;1.70;1.60;;;25.40;76.60;;;;;;6246390;28;20192;-70
2021/08/04 12:46:39;;;;;;;1.70;1.50;;;25.50;78.40;;;;;;6246543;28;20200;-70
2021/08/04 12:49:58;;;;;;;1.50;1.40;;;25.80;79.90;;;;;;6263385;28;20196;-70
2021/08/04 12:53:00;;;;;;;1.40;1.23;;;26.10;78.50;;;;;;6263608;28;20675;-71
2021/08/04 12:56:09;;;;;;;1.40;1.20;;;26.40;78.30;;;;;;6247586;28;20275;-70
2021/08/04 12:59:18;;;;;;;1.52;1.40;;;26.50;69.90;;;;;;6246892;28;20188;-70
2021/08/04 13:02:21;;;;;;;1.50;1.33;;;26.40;68.60;;;;;;6245708;28;20188;-70
2021/08/04 13:05:23;;;;;;;2.15;1.30;;;26.60;69.20;;;;;;6244647;28;20716;-70
2021/08/04 13:08:35;;;;;;;1.38;1.27;;;26.90;67.20;;;;;;6246146;28;20188;-69
2021/08/04 13:11:37;;;;;;;3.10;1.40;;;27.50;65.80;;;;;;6243857;28;20200;-71
2021/08/04 13:15:17;;;;;;;3.55;1.45;;;27.90;65.30;;;;;;6243736;28;20232;-71
2021/08/04 13:18:35;;;;;;;1.50;1.30;;;27.80;61.80;;;;;;6209380;28;20192;-69
2021/08/04 13:21:37;;;;;;;1.55;1.35;;;27.80;61.70;;;;;;6242500;28;20267;-70
2021/08/04 13:24:39;;;;;;;1.30;1.20;;;27.50;62.50;;;;;;6242154;28;20184;-71
2021/08/04 13:27:55;;;;;;;1.55;1.20;;;27.40;64.20;;;;;;6241987;28;20635;-70
2021/08/04 13:31:00;;;;;;;3.03;1.30;;;27.20;63.30;;;;;;6256440;28;20707;-70
2021/08/04 13:34:04;;;;;;;2.45;1.50;;;27.00;64.10;;;;;;6228874;28;20290;-71
2021/08/04 13:37:06;;;;;;;2.95;1.85;;;26.70;64.60;;;;;;6242235;28;20275;-70
2021/08/04 13:40:09;;;;;;;2.05;1.55;;;26.50;66.10;;;;;;6241864;28;20354;-70
2021/08/04 13:43:12;;;;;;;1.48;1.30;;;26.70;66.60;;;;;;6242115;28;20198;-71
2021/08/04 13:46:15;;;;;;;1.42;1.33;;;27.20;63.40;;;;;;6242310;28;20214;-70
2021/08/04 13:49:17;;;;;;;1.75;1.23;;;27.70;62.10;;;;;;6247064;28;20192;-71
2021/08/04 13:52:19;;;;;;;2.00;1.60;;;28.00;61.50;;;;;;6243395;28;20679;-71
2021/08/04 13:55:24;;;;;;;1.80;1.30;;;28.00;62.50;;;;;;6244898;28;20232;-70
2021/08/04 13:58:26;;;;;;;2.67;1.27;;;27.70;60.30;;;;;;6243839;28;20200;-71
2021/08/04 14:01:28;;;;;;;1.23;1.13;;;27.60;63.20;;;;;;6244697;28;20192;-71
2021/08/04 14:04:31;;;;;;;1.52;1.40;;;27.30;62.80;;;;;;6260124;28;20200;-73
2021/08/04 14:07:35;;;;;;;1.27;1.17;;;27.10;61.60;;;;;;6245377;28;20192;-71
2021/08/04 14:10:37;;;;;;;1.55;1.45;;;26.90;63.30;;;;;;6244029;28;20335;-71
2021/08/04 14:13:39;;;;;;;3.00;1.80;;;26.60;64.50;;;;;;6245049;28;20564;-70
2021/08/04 14:16:42;;;;;;;1.55;1.45;;;26.40;63.70;;;;;;6243594;28;20216;-70
2021/08/04 14:19:45;;;;;;;2.00;1.73;;;26.70;64.40;;;;;;6260122;28;20198;-70
2021/08/04 14:22:49;;;;;;;1.50;1.20;;;27.10;64.70;;;;;;6235643;28;20675;-70
2021/08/04 14:25:51;;;;;;;1.75;1.40;;;27.40;59.90;;;;;;6240690;28;20220;-70
2021/08/04 14:28:53;;;;;;;2.03;1.10;;;27.30;60.20;;;;;;6244792;28;20200;-70
2021/08/04 14:31:56;;;;;;;2.83;1.50;;;27.90;64.20;;;;;;6244249;28;20211;-70
2021/08/04 14:34:58;;;;;;;1.45;1.35;;;28.90;59.10;;;;;;6244381;28;20326;-70
2021/08/04 14:38:00;;;;;;;2.72;1.20;;;29.90;56.90;;;;;;6243915;28;20212;-70
2021/08/04 14:41:03;;;;;;;1.45;1.30;;;30.30;55.10;;;;;;6247748;28;20279;-70
2021/08/04 14:44:05;;;;;;;4.55;1.48;;;30.10;56.60;;;;;;6264408;28;20196;-69
2021/08/04 14:47:07;;;;;;;1.60;1.30;;;29.20;55.30;;;;;;6248971;28;20242;-69
2021/08/04 14:50:11;;;;;;;2.33;1.40;;;28.00;57.30;;;;;;6248970;28;20636;-70
2021/08/04 14:53:13;;;;;;;1.10;1.00;;;27.10;58.50;;;;;;6264204;28;20346;-70
2021/08/04 14:56:16;;;;;;;1.40;1.17;;;26.70;64.60;;;;;;6247574;28;20208;-70
2021/08/04 14:59:19;;;;;;;1.45;1.35;;;26.60;67.40;;;;;;6248724;28;20269;-70
2021/08/04 15:02:21;;;;;;;1.38;1.27;;;26.50;68.10;;;;;;6264011;28;20188;-70
2021/08/04 15:05:24;;;;;;;3.65;1.30;;;26.30;67.70;;;;;;6248800;28;20266;-70
2021/08/04 15:08:26;;;;;;;4.97;1.45;;;26.30;70.00;;;;;;6264211;28;20235;-70
2021/08/04 15:11:29;;;;;;;2.85;1.52;;;26.30;71.00;;;;;;6248600;28;20184;-69
2021/08/04 15:14:31;;;;;;;1.48;1.38;;;26.40;72.40;;;;;;6248345;28;20586;-70
2021/08/04 15:17:35;;;;;;;1.38;1.27;;;26.40;71.60;;;;;;6248061;28;20366;-69
2021/08/04 15:20:37;;;;;;;1.88;1.13;;;26.40;72.30;;;;;;6248315;28;20536;-69
2021/08/04 15:23:39;;;;;;;1.60;1.50;;;26.40;72.70;;;;;;6246740;28;20204;-69
2021/08/04 15:26:43;;;;;;;1.40;1.30;;;26.40;71.50;;;;;;6248290;28;20203;-69
2021/08/04 15:29:45;;;;;;;2.00;1.60;;;26.30;73.90;;;;;;6246608;28;20269;-69
2021/08/04 15:32:47;;;;;;;2.03;1.13;;;26.10;75.40;;;;;;6246741;28;20192;-69
2021/08/04 15:35:49;;;;;;;4.05;1.40;;;26.00;76.40;;;;;;6246484;28;20286;-70
2021/08/04 15:38:52;;;;;;;1.40;1.30;;;25.90;77.50;;;;;;6248069;28;20188;-70
2021/08/04 15:41:54;;;;;;;1.60;1.33;;;25.70;76.70;;;;;;6247786;28;20189;-70
2021/08/04 15:45:01;;;;;;;1.45;1.35;;;25.60;77.00;;;;;;6247723;28;20238;-70
2021/08/04 15:48:04;;;;;;;1.40;1.30;;;25.50;76.00;;;;;;6248412;28;20204;-69
2021/08/04 15:51:06;;;;;;;1.23;1.13;;;25.40;78.40;;;;;;6246346;28;20542;-69
2021/08/04 15:54:09;;;;;;;2.42;1.50;;;25.20;79.50;;;;;;6247647;28;20192;-69
2021/08/04 15:57:11;;;;;;;2.70;1.17;;;25.00;80.70;;;;;;6262587;28;20684;-69
2021/08/04 16:00:14;;;;;;;2.17;1.30;;;24.80;81.50;;;;;;6247101;28;20188;-69
2021/08/04 16:03:17;;;;;;;1.80;1.20;;;24.70;82.70;;;;;;6246167;28;20188;-70